Time;durP1;ratioP1;P1;durP2;ratioP2;P2;SDS_P1;SDS_P2;PMS_P1;PMS_P2;Temp;Humidity;BMP_temperature;BMP_pressure;BME280_temperature;BME280_humidity;BME280_pressure;Samples;Min_cycle;Max_cycle;Signal;HPM_P1;HPM_P2
2021/12/26 00:00:59;;;;;;;21.40;11.45;;;5.80;99.90;;;;;;5207062;28;20055;-35
2021/12/26 00:03:33;;;;;;;25.88;12.90;;;4.90;99.90;;;;;;5215666;28;20048;-35
2021/12/26 00:06:12;;;;;;;63.95;14.70;;;4.60;99.90;;;;;;5212341;28;20044;-35
2021/12/26 00:08:46;;;;;;;23.67;10.73;;;5.00;99.90;;;;;;5204331;28;20045;-36
2021/12/26 00:11:19;;;;;;;;;;;5.00;99.90;;;;;;5213753;28;20910;-35
2021/12/26 00:13:53;;;;;;;21.80;10.82;;;7.00;99.90;;;;;;5204684;28;19928;-35
2021/12/26 00:16:25;;;;;;;21.20;12.02;;;5.50;99.90;;;;;;5180812;28;20049;-35
2021/12/26 00:19:03;;;;;;;21.92;12.55;;;5.00;99.90;;;;;;5193180;28;20040;-35
2021/12/26 00:21:36;;;;;;;22.30;11.98;;;7.80;99.90;;;;;;5188086;28;20095;-36
2021/12/26 00:24:09;;;;;;;24.38;12.43;;;5.60;99.90;;;;;;5207819;28;20311;-35
2021/12/26 00:26:42;;;;;;;22.85;11.75;;;;;;;;;;5221044;28;20731;-35
2021/12/26 00:29:15;;;;;;;26.98;11.80;;;;;;;;;;5221025;28;20078;-35
2021/12/26 00:31:48;;;;;;;23.33;12.43;;;6.70;99.90;;;;;;5207463;28;20561;-35
2021/12/26 00:34:21;;;;;;;23.95;12.98;;;;;;;;;;5202806;28;20201;-35
2021/12/26 00:36:55;;;;;;;23.95;11.88;;;4.20;99.90;;;;;;5207336;28;20067;-34
2021/12/26 00:39:27;;;;;;;23.73;11.38;;;7.10;99.90;;;;;;5208644;28;20333;-34
2021/12/26 00:42:00;;;;;;;21.45;11.70;;;4.90;99.90;;;;;;5224579;28;20037;-35
2021/12/26 00:44:38;;;;;;;19.58;11.52;;;4.90;99.90;;;;;;5216735;28;20043;-35
2021/12/26 00:47:12;;;;;;;18.83;10.45;;;3.60;99.90;;;;;;5205507;28;20045;-35
2021/12/26 00:49:45;;;;;;;20.38;11.38;;;5.10;99.90;;;;;;5209904;28;20056;-35
2021/12/26 00:52:17;;;;;;;18.88;10.43;;;;;;;;;;5220606;28;20045;-35
2021/12/26 00:54:50;;;;;;;19.30;11.17;;;4.90;99.90;;;;;;5226133;28;20041;-35
2021/12/26 00:57:23;;;;;;;16.63;10.38;;;4.90;99.90;;;;;;5211482;28;20052;-35
2021/12/26 00:59:55;;;;;;;27.80;12.40;;;5.40;99.90;;;;;;5204756;28;20449;-35
2021/12/26 01:02:28;;;;;;;23.35;11.23;;;4.20;99.90;;;;;;5194431;28;20381;-35
2021/12/26 01:05:02;;;;;;;21.65;11.10;;;3.00;99.90;;;;;;5214089;28;20048;-35
2021/12/26 01:07:48;;;;;;;20.30;11.15;;;4.90;99.90;;;;;;5199291;28;20052;-36
2021/12/26 01:10:22;;;;;;;22.85;11.35;;;5.50;99.90;;;;;;5216093;28;20478;-35
2021/12/26 01:12:55;;;;;;;17.70;10.60;;;4.80;99.90;;;;;;5217331;28;20052;-37
2021/12/26 01:15:31;;;;;;;20.05;11.30;;;7.40;99.90;;;;;;5213582;28;20385;-36
2021/12/26 01:18:18;;;;;;;29.77;12.60;;;4.00;99.90;;;;;;5210362;28;20044;-34
2021/12/26 01:21:00;;;;;;;31.38;13.35;;;4.70;99.90;;;;;;5223482;28;20044;-34
2021/12/26 01:23:33;;;;;;;20.95;12.38;;;6.10;99.90;;;;;;5219135;28;20037;-34
2021/12/26 01:26:06;;;;;;;30.27;12.10;;;4.70;99.90;;;;;;5202616;28;20454;-35
2021/12/26 01:28:39;;;;;;;40.08;13.63;;;4.70;99.90;;;;;;5217899;28;20754;-34
2021/12/26 01:31:18;;;;;;;29.67;12.77;;;6.30;99.90;;;;;;5194615;28;26052;-35
2021/12/26 01:33:59;;;;;;;42.70;14.45;;;4.80;99.90;;;;;;5206590;28;20367;-35
2021/12/26 01:37:07;;;;;;;73.47;17.80;;;4.60;99.90;;;;;;5175954;28;20052;-35
2021/12/26 01:39:52;;;;;;;21.95;12.93;;;;;;;;;;5221415;28;20071;-35
2021/12/26 01:42:38;;;;;;;29.80;13.50;;;3.90;99.90;;;;;;5214972;28;20040;-35
2021/12/26 01:45:29;;;;;;;46.42;14.98;;;3.80;99.90;;;;;;5212182;28;20052;-35
2021/12/26 01:48:09;;;;;;;31.08;13.90;;;4.60;99.90;;;;;;5230458;28;20045;-35
2021/12/26 01:50:51;;;;;;;62.53;15.52;;;4.60;99.90;;;;;;5218343;28;20045;-36
2021/12/26 01:53:26;;;;;;;76.95;16.42;;;4.50;99.90;;;;;;5214876;28;20045;-35
2021/12/26 01:55:59;;;;;;;51.47;14.00;;;5.20;99.90;;;;;;5231330;28;20406;-35
2021/12/26 01:58:32;;;;;;;119.65;19.33;;;4.50;99.90;;;;;;5210556;28;20051;-35
2021/12/26 02:01:13;;;;;;;26.20;14.50;;;4.50;99.90;;;;;;5208205;28;20253;-35
2021/12/26 02:03:46;;;;;;;93.80;17.20;;;4.50;99.90;;;;;;5215886;28;20060;-35
2021/12/26 02:06:18;;;;;;;87.60;18.98;;;4.50;99.90;;;;;;5231048;28;20067;-35
2021/12/26 02:08:55;;;;;;;24.63;13.85;;;7.10;99.90;;;;;;5233374;28;20043;-35
2021/12/26 02:11:27;;;;;;;32.50;14.85;;;6.90;99.90;;;;;;5214989;28;20056;-35
2021/12/26 02:14:02;;;;;;;33.17;13.90;;;4.50;99.90;;;;;;5224539;28;20422;-35
2021/12/26 02:16:48;;;;;;;29.30;15.13;;;4.60;99.90;;;;;;5213309;28;20045;-35
2021/12/26 02:19:20;;;;;;;42.10;15.45;;;5.40;99.90;;;;;;5230880;28;20046;-35
2021/12/26 02:22:11;;;;;;;33.38;15.07;;;4.60;99.90;;;;;;5218020;28;20513;-35
2021/12/26 02:27:33;;;;;;;71.30;17.90;;;;;;;;;;5211223;28;20056;-34
2021/12/26 02:30:15;;;;;;;74.57;18.55;;;2.50;99.90;;;;;;5218043;28;20594;-35
2021/12/26 02:32:52;;;;;;;56.85;17.73;;;6.60;99.90;;;;;;5212549;28;20116;-34
2021/12/26 02:35:25;;;;;;;92.38;19.95;;;4.90;99.90;;;;;;5216317;28;20680;-35
2021/12/26 02:37:59;;;;;;;123.57;22.80;;;;;;;;;;5207265;28;20398;-34
2021/12/26 02:40:32;;;;;;;109.85;22.25;;;6.10;99.90;;;;;;5208788;28;20041;-35
2021/12/26 02:43:05;;;;;;;74.13;18.13;;;4.30;99.90;;;;;;5228215;28;20623;-35
2021/12/26 02:45:38;;;;;;;49.33;18.63;;;4.40;99.90;;;;;;5217021;28;20847;-35
2021/12/26 02:48:12;;;;;;;45.37;18.87;;;;;;;;;;5199589;28;20063;-35
2021/12/26 02:50:46;;;;;;;38.78;17.10;;;3.20;99.90;;;;;;5207688;28;20313;-35
2021/12/26 02:53:20;;;;;;;33.40;17.40;;;4.10;99.90;;;;;;5194247;28;20402;-35
2021/12/26 02:55:55;;;;;;;39.38;17.90;;;6.90;99.90;;;;;;5213559;28;20952;-35
2021/12/26 02:58:28;;;;;;;77.75;20.67;;;7.70;99.90;;;;;;5222837;28;20049;-35
2021/12/26 03:01:31;;;;;;;37.40;17.73;;;3.00;99.90;;;;;;5201621;28;20036;-35
2021/12/26 03:04:08;;;;;;;73.88;19.85;;;6.60;99.90;;;;;;5220234;28;20063;-35
2021/12/26 03:09:18;;;;;;;32.15;15.27;;;;;;;;;;5216557;28;20048;-34
2021/12/26 03:11:50;;;;;;;28.30;14.57;;;7.10;99.90;;;;;;5212614;28;20392;-35
2021/12/26 03:14:23;;;;;;;33.00;16.50;;;4.20;99.90;;;;;;5208880;28;20044;-34
2021/12/26 03:17:00;;;;;;;31.33;15.40;;;4.40;99.90;;;;;;5211970;28;20410;-35
2021/12/26 03:19:34;;;;;;;30.73;14.77;;;6.00;99.90;;;;;;5209212;28;20036;-35
2021/12/26 03:22:07;;;;;;;31.73;15.32;;;6.60;99.90;;;;;;5226783;28;20426;-35
2021/12/26 03:24:41;;;;;;;31.47;15.13;;;6.00;99.90;;;;;;5224561;28;20071;-35
2021/12/26 03:27:14;;;;;;;37.25;17.13;;;5.30;99.90;;;;;;5200275;28;20370;-33
2021/12/26 03:29:47;;;;;;;38.53;16.67;;;2.50;99.90;;;;;;5222813;28;20041;-35
2021/12/26 03:32:23;;;;;;;39.80;16.20;;;5.20;99.90;;;;;;5213233;28;20048;-35
2021/12/26 03:34:56;;;;;;;34.33;16.70;;;4.20;99.90;;;;;;5208985;28;20436;-35
2021/12/26 03:37:29;;;;;;;34.40;15.43;;;2.90;99.90;;;;;;5220744;28;20371;-35
2021/12/26 03:40:05;;;;;;;35.20;15.68;;;4.30;99.90;;;;;;5217267;28;20044;-35
2021/12/26 03:42:38;;;;;;;28.58;14.40;;;4.40;99.90;;;;;;5205472;28;20044;-35
2021/12/26 03:45:11;;;;;;;36.60;16.58;;;4.10;99.90;;;;;;5198968;28;20037;-35
2021/12/26 03:47:48;;;;;;;36.10;16.67;;;2.60;99.90;;;;;;5221354;28;20052;-34
2021/12/26 03:50:23;;;;;;;33.05;15.82;;;4.30;99.90;;;;;;5208972;28;20527;-35
2021/12/26 03:52:58;;;;;;;30.45;15.27;;;6.30;99.90;;;;;;5223014;28;20049;-35
2021/12/26 03:55:32;;;;;;;28.83;15.13;;;;;;;;;;5220583;28;20067;-35
2021/12/26 03:58:05;;;;;;;32.67;15.68;;;6.20;99.90;;;;;;5231506;28;20055;-35
2021/12/26 04:00:39;;;;;;;32.83;14.52;;;4.30;99.90;;;;;;5211061;28;20201;-35
2021/12/26 04:03:12;;;;;;;31.10;14.43;;;;;;;;;;5212247;28;20533;-35
2021/12/26 04:05:51;;;;;;;33.00;14.43;;;3.40;99.90;;;;;;5229850;28;20049;-35
2021/12/26 04:08:24;;;;;;;27.25;13.95;;;1.80;99.90;;;;;;5210157;28;20053;-35
2021/12/26 04:10:57;;;;;;;27.95;14.20;;;7.10;99.90;;;;;;5213307;28;20203;-35
2021/12/26 04:13:30;;;;;;;29.52;14.90;;;5.60;99.90;;;;;;5200400;28;20056;-35
2021/12/26 04:16:04;;;;;;;25.10;12.82;;;5.30;99.90;;;;;;5212340;28;20049;-35
2021/12/26 04:18:37;;;;;;;28.85;14.68;;;;;;;;;;5210825;28;20054;-35
2021/12/26 04:21:12;;;;;;;26.60;13.60;;;4.80;99.90;;;;;;5214299;28;20037;-35
2021/12/26 04:24:00;;;;;;;28.08;13.25;;;3.00;99.90;;;;;;5222873;28;20060;-36
2021/12/26 04:26:33;;;;;;;27.73;13.32;;;;;;;;;;5207223;28;20053;-36
2021/12/26 04:29:07;;;;;;;23.77;13.07;;;6.80;99.90;;;;;;5188343;28;20060;-35
2021/12/26 04:31:40;;;;;;;25.67;12.70;;;;;;;;;;5197180;28;20060;-36
2021/12/26 04:34:13;;;;;;;25.50;12.73;;;5.80;99.90;;;;;;5199024;28;20051;-35
2021/12/26 04:36:46;;;;;;;24.83;12.85;;;4.30;99.90;;;;;;5219673;28;20045;-36
2021/12/26 04:39:18;;;;;;;29.13;13.77;;;7.80;99.90;;;;;;5227127;28;20040;-35
2021/12/26 04:41:51;;;;;;;23.55;12.43;;;;;;;;;;5215523;28;20041;-35
2021/12/26 04:44:51;;;;;;;26.52;12.35;;;;;;;;;;5212640;28;20727;-36
2021/12/26 04:48:00;;;;;;;22.20;12.18;;;4.20;99.90;;;;;;5184814;28;20532;-35
2021/12/26 04:50:37;;;;;;;23.52;12.30;;;;;;;;;;5218478;28;20045;-35
2021/12/26 04:53:13;;;;;;;21.33;10.48;;;;;;;;;;5219261;28;20057;-35
2021/12/26 04:55:45;;;;;;;21.73;11.20;;;6.40;99.90;;;;;;5216089;28;20052;-35
2021/12/26 04:58:18;;;;;;;22.42;12.57;;;5.70;99.90;;;;;;5208820;28;20290;-35
2021/12/26 05:00:50;;;;;;;23.95;12.77;;;5.10;99.90;;;;;;5212085;28;20041;-35
2021/12/26 05:03:23;;;;;;;24.93;12.90;;;;;;;;;;5214398;28;20041;-35
2021/12/26 05:05:56;;;;;;;25.13;13.02;;;5.00;99.90;;;;;;5210615;28;20041;-36
2021/12/26 05:08:29;;;;;;;26.23;12.80;;;;;;;;;;5211911;28;20045;-35
2021/12/26 05:11:02;;;;;;;27.38;13.40;;;;;;;;;;5210797;28;20391;-35
2021/12/26 05:13:36;;;;;;;24.13;12.20;;;;;;;;;;5214241;28;20064;-36
2021/12/26 05:16:08;;;;;;;27.38;12.60;;;;;;;;;;5202258;28;20654;-35
2021/12/26 05:18:43;;;;;;;25.98;13.93;;;;;;;;;;5204141;28;20049;-35
2021/12/26 05:21:16;;;;;;;27.52;13.10;;;;;;;;;;5215346;28;20044;-35
2021/12/26 05:23:50;;;;;;;27.73;13.90;;;;;;;;;;5215042;28;20053;-35
2021/12/26 05:26:23;;;;;;;;;;;4.00;99.90;;;;;;5220694;28;20060;-35
2021/12/26 05:28:57;;;;;;;30.00;15.13;;;;;;;;;;5217032;28;19924;-36
2021/12/26 05:31:30;;;;;;;33.25;15.30;;;;;;;;;;5226997;28;20060;-36
2021/12/26 05:34:03;;;;;;;30.00;15.30;;;;;;;;;;5222776;28;20057;-35
2021/12/26 05:36:36;;;;;;;50.72;18.02;;;;;;;;;;5221443;28;20052;-35
2021/12/26 05:39:09;;;;;;;35.22;15.25;;;;;;;;;;5220461;28;21759;-35
2021/12/26 05:41:42;;;;;;;31.67;15.27;;;;;;;;;;5202782;28;20045;-35
2021/12/26 05:44:32;;;;;;;34.10;15.90;;;6.90;99.90;;;;;;5214027;28;20051;-35
2021/12/26 05:47:07;;;;;;;35.10;16.90;;;3.80;99.90;;;;;;5233572;28;20041;-35
2021/12/26 05:50:06;;;;;;;31.02;15.60;;;3.80;99.90;;;;;;5215346;28;20099;-35
2021/12/26 05:52:39;;;;;;;31.85;16.23;;;3.80;99.90;;;;;;5222937;28;20060;-35
2021/12/26 05:55:19;;;;;;;34.63;14.73;;;6.10;99.90;;;;;;5209847;28;20494;-35
2021/12/26 05:57:55;;;;;;;29.92;13.63;;;;;;;;;;5214147;28;20041;-36
2021/12/26 06:00:28;;;;;;;31.27;15.20;;;5.90;99.90;;;;;;5209688;28;20238;-35
2021/12/26 06:03:03;;;;;;;32.05;15.18;;;6.80;99.90;;;;;;5221794;28;20055;-35
2021/12/26 06:05:36;;;;;;;32.17;14.52;;;4.60;99.90;;;;;;5216102;28;20049;-35
2021/12/26 06:08:09;;;;;;;29.27;13.27;;;;;;;;;;5229271;28;20044;-35
2021/12/26 06:10:45;;;;;;;26.73;12.88;;;4.30;99.90;;;;;;5212950;28;20072;-35
2021/12/26 06:13:18;;;;;;;42.58;15.20;;;;;;;;;;5217650;28;20053;-35
2021/12/26 06:15:51;;;;;;;27.83;13.90;;;3.80;99.90;;;;;;5219311;28;20943;-35
2021/12/26 06:18:23;;;;;;;28.25;14.52;;;3.90;99.90;;;;;;5219090;28;20049;-35
2021/12/26 06:21:14;;;;;;;27.60;13.20;;;3.70;99.90;;;;;;5213333;28;20283;-36
2021/12/26 06:23:53;;;;;;;26.30;13.43;;;;;;;;;;5215155;28;20053;-35
2021/12/26 06:26:34;;;;;;;27.25;14.18;;;3.10;99.90;;;;;;5211787;28;20049;-35
2021/12/26 06:29:16;;;;;;;39.90;14.90;;;;;;;;;;5220302;28;20395;-35
2021/12/26 06:32:14;;;;;;;28.42;14.30;;;;;;;;;;5210541;28;20414;-35
2021/12/26 06:35:08;;;;;;;31.45;14.48;;;2.10;99.90;;;;;;5215475;28;20041;-34
2021/12/26 06:37:59;;;;;;;28.47;14.27;;;;;;;;;;5210074;28;20037;-35
2021/12/26 06:40:50;;;;;;;30.70;14.77;;;;;;;;;;5215459;28;20294;-34
2021/12/26 06:43:42;;;;;;;32.05;14.13;;;4.20;99.90;;;;;;5222470;28;20335;-35
2021/12/26 06:46:36;;;;;;;28.73;13.88;;;3.60;99.90;;;;;;5211428;28;20506;-35
2021/12/26 06:49:28;;;;;;;28.77;14.25;;;;;;;;;;5225381;28;20583;-35
2021/12/26 06:52:07;;;;;;;37.72;15.77;;;;;;;;;;5216433;28;20044;-35
2021/12/26 06:54:40;;;;;;;28.07;14.37;;;;;;;;;;5216221;28;20072;-35
2021/12/26 06:57:12;;;;;;;32.35;14.77;;;3.70;99.90;;;;;;5225934;28;20460;-35
2021/12/26 06:59:45;;;;;;;33.65;14.40;;;;;;;;;;5213664;28;20064;-35
2021/12/26 07:02:19;;;;;;;;;;;3.60;99.90;;;;;;5218730;28;20136;-35
2021/12/26 07:05:02;;;;;;;28.70;13.02;;;3.40;99.90;;;;;;5209265;28;20418;-35
2021/12/26 07:07:47;;;;;;;34.60;13.20;;;3.40;99.90;;;;;;5214219;28;20060;-35
2021/12/26 07:10:20;;;;;;;30.87;14.97;;;;;;;;;;5216602;28;20049;-37
2021/12/26 07:12:53;;;;;;;26.17;13.35;;;3.50;99.90;;;;;;5205620;28;20485;-35
2021/12/26 07:15:38;;;;;;;33.47;15.70;;;;;;;;;;5200574;28;20433;-35
2021/12/26 07:18:11;;;;;;;30.58;14.95;;;;;;;;;;5218747;28;20049;-35
2021/12/26 07:20:46;;;;;;;28.45;14.52;;;;;;;;;;5195986;28;20041;-36
2021/12/26 07:23:22;;;;;;;26.38;13.93;;;;;;;;;;5200370;28;20513;-34
2021/12/26 07:25:58;;;;;;;30.23;14.63;;;;;;;;;;5207550;28;20193;-34
2021/12/26 07:28:31;;;;;;;28.75;13.93;;;7.20;99.90;;;;;;5211761;28;20067;-34
2021/12/26 07:31:26;;;;;;;30.60;14.10;;;;;;;;;;5200847;28;20135;-35
2021/12/26 07:34:04;;;;;;;28.73;14.23;;;;;;;;;;5200035;28;20067;-34
2021/12/26 07:36:37;;;;;;;25.65;12.85;;;;;;;;;;5226774;28;20056;-36
2021/12/26 07:39:19;;;;;;;27.58;14.52;;;;;;;;;;5211337;28;20048;-35
2021/12/26 07:41:51;;;;;;;27.70;13.60;;;;;;;;;;5208189;28;20044;-35
2021/12/26 07:44:43;;;;;;;30.88;15.20;;;;;;;;;;5201560;28;20049;-35
2021/12/26 07:47:30;;;;;;;27.85;14.13;;;1.70;99.90;;;;;;5198596;28;20398;-35
2021/12/26 07:50:05;;;;;;;29.92;13.90;;;3.60;99.90;;;;;;5195461;28;20056;-35
2021/12/26 07:53:07;;;;;;;27.95;13.15;;;;;;;;;;5201955;28;20052;-34
2021/12/26 07:55:58;;;;;;;28.63;13.00;;;;;;;;;;5197486;28;20052;-34
2021/12/26 07:58:54;;;;;;;28.63;14.02;;;;;;;;;;5208366;28;20530;-35
2021/12/26 08:01:46;;;;;;;26.70;13.95;;;3.60;99.90;;;;;;5198023;28;20321;-35
2021/12/26 08:04:48;;;;;;;26.10;13.25;;;;;;;;;;5189752;28;20048;-35
2021/12/26 08:07:44;;;;;;;29.02;13.88;;;3.40;99.90;;;;;;5192711;28;20048;-35
2021/12/26 08:10:17;;;;;;;28.50;14.45;;;;;;;;;;5191127;28;20574;-36
2021/12/26 08:12:51;;;;;;;29.95;14.80;;;;;;;;;;5189958;28;21556;-36
2021/12/26 08:15:25;;;;;;;33.10;16.08;;;;;;;;;;5208486;28;20484;-35
2021/12/26 08:17:58;;;;;;;29.33;15.33;;;;;;;;;;5192695;28;20052;-36
2021/12/26 08:20:31;;;;;;;29.63;15.75;;;;;;;;;;5188413;28;20498;-35
2021/12/26 08:23:04;;;;;;;28.35;14.50;;;;;;;;;;5188319;28;20053;-35
2021/12/26 08:25:37;;;;;;;28.20;14.77;;;;;;;;;;5188930;28;20041;-35
2021/12/26 08:28:10;;;;;;;29.42;14.82;;;;;;;;;;5208262;28;20048;-36
2021/12/26 08:30:44;;;;;;;30.13;14.50;;;3.50;99.90;;;;;;5189043;28;20360;-35
2021/12/26 08:33:17;;;;;;;30.58;15.00;;;;;;;;;;5179549;28;22130;-35
2021/12/26 08:35:50;;;;;;;27.90;14.40;;;;;;;;;;5179988;28;20049;-35
2021/12/26 08:38:23;;;;;;;32.10;16.45;;;;;;;;;;5191303;28;20033;-36
2021/12/26 08:40:56;;;;;;;30.87;15.13;;;3.50;99.90;;;;;;5199026;28;20056;-35
2021/12/26 08:43:29;;;;;;;34.05;16.38;;;;;;;;;;5201699;28;20045;-36
2021/12/26 08:46:02;;;;;;;27.73;14.05;;;;;;;;;;5196539;28;20040;-34
2021/12/26 08:48:35;;;;;;;29.45;15.00;;;;;;;;;;5203690;28;20045;-35
2021/12/26 08:51:08;;;;;;;27.98;14.43;;;;;;;;;;5210647;28;20060;-34
2021/12/26 08:53:41;;;;;;;28.08;15.02;;;;;;;;;;5204071;28;21530;-35
2021/12/26 08:56:14;;;;;;;28.33;13.85;;;;;;;;;;5195803;28;20418;-35
2021/12/26 08:58:46;;;;;;;31.17;15.18;;;;;;;;;;5211879;28;20040;-34
2021/12/26 09:01:19;;;;;;;31.13;15.13;;;;;;;;;;5183131;28;20045;-35
2021/12/26 09:03:53;;;;;;;29.38;14.98;;;3.70;99.90;;;;;;5195702;28;20063;-34
2021/12/26 09:06:26;;;;;;;29.20;15.48;;;;;;;;;;5201345;28;20460;-35
2021/12/26 09:08:59;;;;;;;26.83;13.90;;;;;;;;;;5199239;28;20525;-35
2021/12/26 09:11:33;;;;;;;29.27;14.85;;;;;;;;;;5192834;28;20280;-34
2021/12/26 09:14:05;;;;;;;;;;;3.80;99.90;;;;;;5199253;28;20044;-34
2021/12/26 09:16:38;;;;;;;26.92;13.90;;;;;;;;;;5194867;28;19928;-34
2021/12/26 09:19:10;;;;;;;32.10;15.13;;;;;;;;;;5199994;28;20053;-34
2021/12/26 09:21:43;;;;;;;29.38;15.13;;;;;;;;;;5213780;28;20303;-34
2021/12/26 09:24:16;;;;;;;28.20;15.20;;;;;;;;;;5208241;28;20044;-34
2021/12/26 09:26:52;;;;;;;28.27;14.00;;;;;;;;;;5218333;28;20304;-34
2021/12/26 09:29:25;;;;;;;27.15;14.73;;;;;;;;;;5207782;28;20053;-35
2021/12/26 09:31:57;;;;;;;27.70;15.33;;;;;;;;;;5198062;28;20049;-35
2021/12/26 09:34:33;;;;;;;27.02;14.27;;;3.90;99.90;;;;;;5190535;28;20052;-34
2021/12/26 09:37:08;;;;;;;29.20;15.13;;;3.70;99.90;;;;;;5193118;28;20051;-35
2021/12/26 09:39:41;;;;;;;28.77;14.05;;;;;;;;;;5210468;28;20053;-34
2021/12/26 09:42:14;;;;;;;23.90;13.40;;;;;;;;;;5206982;28;20040;-34
2021/12/26 09:44:47;;;;;;;28.67;13.77;;;4.00;99.90;;;;;;5197677;28;20390;-34
2021/12/26 09:47:20;;;;;;;28.10;13.85;;;;;;;;;;5192559;28;21717;-34
2021/12/26 09:49:53;;;;;;;26.33;13.40;;;;;;;;;;5183087;28;20848;-34
2021/12/26 09:52:26;;;;;;;28.17;13.53;;;;;;;;;;5197079;28;20462;-34
2021/12/26 09:54:59;;;;;;;24.58;13.02;;;;;;;;;;5200975;28;20295;-34
2021/12/26 09:57:32;;;;;;;25.92;14.40;;;;;;;;;;5194062;28;20044;-34
2021/12/26 10:00:31;;;;;;;25.23;12.65;;;4.20;99.90;;;;;;5189410;28;20661;-35
2021/12/26 10:03:33;;;;;;;25.23;13.07;;;4.20;99.90;;;;;;5194407;28;20068;-34
2021/12/26 10:06:13;;;;;;;24.70;13.48;;;4.30;99.90;;;;;;4502362;28;10000814;-35
2021/12/26 10:08:52;;;;;;;22.05;12.02;;;4.20;99.90;;;;;;5200034;28;20056;-35
2021/12/26 10:11:31;;;;;;;25.45;12.82;;;4.40;99.90;;;;;;5192435;28;20432;-34
2021/12/26 10:14:09;;;;;;;27.25;13.02;;;4.20;99.90;;;;;;5193928;28;20399;-34
2021/12/26 10:16:48;;;;;;;25.80;13.43;;;4.40;99.90;;;;;;5186573;28;20056;-35
2021/12/26 10:19:22;;;;;;;26.95;13.10;;;;;;;;;;5192957;28;20041;-41
2021/12/26 10:22:00;;;;;;;27.48;13.77;;;4.40;99.90;;;;;;5199586;28;20060;-34
2021/12/26 10:24:35;;;;;;;26.65;13.30;;;4.60;99.90;;;;;;5192713;28;20041;-34
2021/12/26 10:27:22;;;;;;;23.88;13.07;;;4.50;99.90;;;;;;5188991;28;20616;-35
2021/12/26 10:29:56;;;;;;;25.38;13.43;;;4.30;99.90;;;;;;5188371;28;20059;-34
2021/12/26 10:32:37;;;;;;;25.30;13.45;;;4.50;99.90;;;;;;5174204;28;20595;-35
2021/12/26 10:35:16;;;;;;;29.02;15.38;;;4.60;99.90;;;;;;5199128;28;20060;-35
2021/12/26 10:37:52;;;;;;;25.40;13.23;;;4.60;99.90;;;;;;5192413;28;20045;-35
2021/12/26 10:40:35;;;;;;;24.10;13.32;;;4.60;99.90;;;;;;5188993;28;20497;-35
2021/12/26 10:43:11;;;;;;;24.25;13.38;;;;;;;;;;5190942;28;20041;-35
2021/12/26 10:45:43;;;;;;;24.23;13.13;;;;;;;;;;5187240;28;20635;-35
2021/12/26 10:48:24;;;;;;;21.13;11.50;;;4.70;99.90;;;;;;5190108;28;20033;-35
2021/12/26 10:50:57;;;;;;;26.70;13.45;;;;;;;;;;5180841;28;21172;-35
2021/12/26 10:53:30;;;;;;;25.55;13.73;;;;;;;;;;5189415;28;20907;-35
2021/12/26 10:56:08;;;;;;;21.77;12.40;;;4.70;99.90;;;;;;5187122;28;20059;-35
2021/12/26 10:58:41;;;;;;;21.60;12.48;;;;;;;;;;5191735;28;20499;-35
2021/12/26 11:01:15;;;;;;;27.33;13.37;;;;;;;;;;5190123;28;20060;-35
2021/12/26 11:03:48;;;;;;;25.27;13.75;;;;;;;;;;5189974;28;20060;-35
2021/12/26 11:06:22;;;;;;;22.35;12.70;;;;;;;;;;5188857;28;20036;-34
2021/12/26 11:08:55;;;;;;;23.17;12.80;;;;;;;;;;5196459;28;20762;-34
2021/12/26 11:11:30;;;;;;;23.83;13.07;;;;;;;;;;5188302;28;20490;-36
2021/12/26 11:14:04;;;;;;;23.13;12.23;;;;;;;;;;5196667;28;20434;-35
2021/12/26 11:16:40;;;;;;;25.50;11.88;;;4.80;99.90;;;;;;5197448;28;20057;-36
2021/12/26 11:19:13;;;;;;;28.50;12.73;;;;;;;;;;5190391;28;20069;-36
2021/12/26 11:21:46;;;;;;;25.23;13.30;;;4.80;99.90;;;;;;5198218;28;20049;-36
2021/12/26 11:24:20;;;;;;;22.90;12.93;;;;;;;;;;5197691;28;20749;-36
2021/12/26 11:26:53;;;;;;;26.40;13.60;;;;;;;;;;5184067;28;20487;-35
2021/12/26 11:29:26;;;;;;;24.17;13.20;;;;;;;;;;5185801;28;20049;-35
2021/12/26 11:31:59;;;;;;;25.88;12.98;;;6.60;99.90;;;;;;5180893;28;20052;-35
2021/12/26 11:34:32;;;;;;;22.00;12.50;;;6.20;99.90;;;;;;5173224;28;20063;-34
2021/12/26 11:37:05;;;;;;;20.83;12.32;;;;;;;;;;5196718;28;20677;-35
2021/12/26 11:39:57;;;;;;;22.90;12.55;;;5.10;99.90;;;;;;5202634;28;20375;-35
2021/12/26 11:43:05;;;;;;;22.80;12.32;;;6.20;99.90;;;;;;5194913;28;20048;-35
2021/12/26 11:46:20;;;;;;;21.60;12.25;;;5.10;99.90;;;;;;5180449;28;20415;-36
2021/12/26 11:49:29;;;;;;;20.48;11.75;;;5.00;99.90;;;;;;5188737;28;20045;-36
2021/12/26 11:52:43;;;;;;;22.55;12.48;;;4.50;99.90;;;;;;5187935;28;20041;-35
2021/12/26 11:55:52;;;;;;;24.88;12.98;;;5.00;99.90;;;;;;5219390;28;20056;-35
2021/12/26 11:59:10;;;;;;;25.02;12.88;;;5.00;99.90;;;;;;5220092;28;20052;-35
2021/12/26 12:01:47;;;;;;;24.15;12.23;;;5.10;99.90;;;;;;5180864;28;20052;-35
2021/12/26 12:04:25;;;;;;;23.63;12.95;;;4.70;99.90;;;;;;5209919;28;20056;-35
2021/12/26 12:07:07;;;;;;;22.30;12.82;;;5.10;99.90;;;;;;5213393;28;20230;-35
2021/12/26 12:09:46;;;;;;;25.67;13.30;;;5.10;99.90;;;;;;5218072;28;20068;-35
2021/12/26 12:12:18;;;;;;;22.88;12.32;;;5.30;99.90;;;;;;5228021;28;20528;-35
2021/12/26 12:14:58;;;;;;;21.17;10.98;;;4.10;99.90;;;;;;5213686;28;20040;-35
2021/12/26 12:17:32;;;;;;;19.42;11.25;;;6.50;99.90;;;;;;5215593;28;20056;-35
2021/12/26 12:20:14;;;;;;;23.23;12.75;;;5.20;99.90;;;;;;5216250;28;20059;-35
2021/12/26 12:23:07;;;;;;;20.63;12.13;;;5.20;99.90;;;;;;5213295;28;20053;-35
2021/12/26 12:25:42;;;;;;;20.70;11.90;;;5.10;99.90;;;;;;5220000;28;20052;-35
2021/12/26 12:28:15;;;;;;;20.35;11.32;;;;;;;;;;5214360;28;20037;-35
2021/12/26 12:30:49;;;;;;;17.87;10.27;;;5.10;99.90;;;;;;5219782;28;20049;-34
2021/12/26 12:33:30;;;;;;;19.65;10.77;;;5.20;99.90;;;;;;5213872;28;20052;-35
2021/12/26 12:36:10;;;;;;;20.80;11.38;;;5.60;99.90;;;;;;5215666;28;20087;-35
2021/12/26 12:38:48;;;;;;;19.00;10.18;;;5.00;99.90;;;;;;5207708;28;20053;-34
2021/12/26 12:41:35;;;;;;;17.02;10.07;;;7.70;99.90;;;;;;5213701;28;20063;-35
2021/12/26 12:44:31;;;;;;;21.45;10.73;;;5.20;99.90;;;;;;5212379;28;20057;-34
2021/12/26 12:47:13;;;;;;;24.13;11.05;;;5.20;99.90;;;;;;5209919;28;20053;-35
2021/12/26 12:49:50;;;;;;;20.42;11.27;;;5.20;99.90;;;;;;5212036;28;20064;-35
2021/12/26 12:52:45;;;;;;;21.50;11.95;;;5.30;99.90;;;;;;5214988;28;20079;-34
2021/12/26 12:55:40;;;;;;;24.90;11.05;;;5.20;99.90;;;;;;5209247;28;20494;-35
2021/12/26 12:58:31;;;;;;;17.02;9.60;;;7.60;99.90;;;;;;5205902;28;20045;-34
2021/12/26 13:01:05;;;;;;;16.75;9.23;;;5.20;99.90;;;;;;5213659;28;20049;-34
2021/12/26 13:03:40;;;;;;;18.05;9.50;;;7.10;99.90;;;;;;5209580;28;20048;-35
2021/12/26 13:06:14;;;;;;;22.58;9.32;;;;;;;;;;5205773;28;20044;-35
2021/12/26 13:08:47;;;;;;;20.98;10.00;;;;;;;;;;4498672;28;10000620;-36
2021/12/26 13:11:20;;;;;;;24.93;11.03;;;6.70;99.90;;;;;;5198025;28;21177;-36
2021/12/26 13:13:56;;;;;;;20.10;10.18;;;6.60;99.90;;;;;;5202579;28;20060;-36
2021/12/26 13:16:30;;;;;;;19.83;10.52;;;8.80;99.90;;;;;;5207052;28;20061;-36
2021/12/26 13:19:08;;;;;;;21.08;10.88;;;6.60;99.90;;;;;;5207907;28;20054;-36
2021/12/26 13:21:41;;;;;;;20.02;10.48;;;6.40;99.90;;;;;;5205866;28;20072;-36
2021/12/26 13:24:14;;;;;;;21.48;10.82;;;4.70;99.90;;;;;;5200635;28;20049;-36
2021/12/26 13:26:47;;;;;;;22.95;11.05;;;5.30;99.90;;;;;;5211002;28;20045;-36
2021/12/26 13:29:19;;;;;;;22.25;10.98;;;5.40;99.90;;;;;;5205132;28;20067;-36
2021/12/26 13:31:52;;;;;;;16.30;9.05;;;6.60;99.90;;;;;;5212857;28;20052;-36
2021/12/26 13:34:25;;;;;;;17.02;10.30;;;6.90;99.90;;;;;;5212369;28;20053;-36
2021/12/26 13:37:01;;;;;;;25.58;10.98;;;7.80;99.90;;;;;;5210305;28;20047;-36
2021/12/26 13:39:34;;;;;;;30.80;12.52;;;5.40;99.90;;;;;;5203561;28;20125;-36
2021/12/26 13:42:09;;;;;;;24.08;10.80;;;5.40;99.90;;;;;;5202069;28;20049;-36
2021/12/26 13:44:43;;;;;;;20.10;10.32;;;3.70;99.90;;;;;;5213716;28;20510;-36
2021/12/26 13:47:16;;;;;;;20.10;10.63;;;5.50;99.90;;;;;;5206658;28;20387;-36
2021/12/26 13:49:49;;;;;;;17.45;9.65;;;5.50;99.90;;;;;;5194924;28;20430;-36
2021/12/26 13:52:21;;;;;;;18.37;10.23;;;5.50;99.90;;;;;;5187766;28;20053;-36
2021/12/26 13:54:54;;;;;;;17.25;9.75;;;5.60;99.90;;;;;;5200553;28;20056;-36
2021/12/26 13:57:26;;;;;;;19.13;10.30;;;8.40;99.90;;;;;;5196308;28;20045;-36
2021/12/26 14:00:02;;;;;;;18.83;10.07;;;5.60;99.90;;;;;;5189820;28;20045;-36
2021/12/26 14:02:35;;;;;;;16.92;9.82;;;5.90;99.90;;;;;;5198174;28;20036;-36
2021/12/26 14:05:11;;;;;;;18.83;10.10;;;5.50;99.90;;;;;;5197963;28;20528;-36
2021/12/26 14:07:49;;;;;;;18.73;9.55;;;5.40;99.90;;;;;;5212248;28;20041;-36
2021/12/26 14:10:23;;;;;;;14.25;8.60;;;5.70;99.90;;;;;;5208210;28;20095;-36
2021/12/26 14:12:58;;;;;;;27.38;11.68;;;5.70;99.90;;;;;;5202011;28;20187;-36